Time;durP1;ratioP1;P1;durP2;ratioP2;P2;SDS_P1;SDS_P2;PMS_P1;PMS_P2;Temp;Humidity;BMP_temperature;BMP_pressure;BME280_temperature;BME280_humidity;BME280_pressure;Samples;Min_cycle;Max_cycle;Signal;HPM_P1;HPM_P2
2023/07/29 00:03:32;;;;;;;6.80;5.80;;;;;;;17.13;81.22;97978.21;435017;1253;99302;-42
2023/07/29 00:13:39;;;;;;;6.50;5.80;;;;;;;17.13;81.52;97983.60;434950;1256;409396;-41
2023/07/29 00:23:46;;;;;;;9.70;6.20;;;;;;;16.87;81.04;97986.23;435099;1256;99245;-41
2023/07/29 00:43:59;;;;;;;6.30;5.30;;;;;;;16.51;81.67;97990.34;435090;1254;108562;-42
2023/07/29 00:54:06;;;;;;;7.80;5.60;;;;;;;16.48;81.98;97991.71;434959;1256;99340;-43
2023/07/29 01:04:12;;;;;;;12.30;4.80;;;;;;;16.49;82.21;97991.91;435106;1258;106598;-42
2023/07/29 01:14:17;;;;;;;8.20;5.00;;;;;;;16.39;82.44;97989.37;435127;1256;98852;-43
2023/07/29 01:24:24;;;;;;;6.10;4.70;;;;;;;16.33;82.49;97987.07;435149;1257;110674;-43
2023/07/29 01:34:29;;;;;;;7.30;4.50;;;;;;;16.43;83.03;97980.70;435618;1257;108015;-41
2023/07/29 01:44:37;;;;;;;5.40;4.20;;;;;;;16.58;83.13;97976.18;434562;1254;99167;-42
2023/07/29 01:54:44;;;;;;;7.80;4.20;;;;;;;16.73;83.09;97984.20;434677;1257;108098;-40
2023/07/29 02:14:57;;;;;;;4.70;4.30;;;;;;;16.68;82.84;97989.87;434729;1257;110840;-42
2023/07/29 02:25:03;;;;;;;3.80;3.50;;;;;;;16.52;82.79;97991.98;434448;1257;108650;-42
2023/07/29 02:35:11;;;;;;;6.00;4.20;;;;;;;16.41;82.99;97993.92;434702;1253;99247;-43
2023/07/29 02:45:18;;;;;;;5.40;4.80;;;;;;;16.30;82.85;97997.93;434715;1257;108488;-42
2023/07/29 02:55:27;;;;;;;9.10;4.40;;;;;;;16.18;82.96;98001.09;434391;1257;99266;-44
2023/07/29 03:05:34;;;;;;;7.30;4.90;;;;;;;16.09;82.99;98006.86;434186;1257;111163;-42
2023/07/29 03:15:41;;;;;;;9.40;5.50;;;;;;;16.04;83.19;98014.76;434240;1257;107986;-42
2023/07/29 03:25:50;;;;;;;8.70;4.70;;;;;;;16.07;83.09;98024.86;434293;1255;99228;-43
2023/07/29 03:35:58;;;;;;;8.60;5.60;;;;;;;16.04;83.28;98025.05;434312;1258;109422;-42
2023/07/29 03:46:03;;;;;;;5.90;4.60;;;;;;;16.51;83.46;98021.77;434291;1256;99246;-43
2023/07/29 03:56:11;;;;;;;5.10;4.50;;;;;;;18.03;82.83;98020.05;434268;1258;111479;-44
2023/07/29 04:06:18;;;;;;;9.30;4.30;;;;;;;19.81;81.49;98023.61;434311;1254;108573;-43
2023/07/29 04:16:26;;;;;;;7.80;4.30;;;;;;;21.38;79.77;98025.61;434328;1257;98498;-43
2023/07/29 04:26:33;;;;;;;6.20;4.00;;;;;;;21.43;78.05;98038.10;434245;1258;109529;-41
2023/07/29 04:56:53;;;;;;;7.70;4.50;;;;;;;21.58;77.35;98043.70;435128;1254;108498;-43
2023/07/29 05:06:58;;;;;;;;;;;;;;;22.78;76.79;98046.33;435221;1256;99240;-42
2023/07/29 05:17:05;;;;;;;4.80;4.40;;;;;;;22.32;75.28;98058.34;435313;1254;108649;-42
2023/07/29 05:27:12;;;;;;;4.70;4.00;;;;;;;21.67;75.03;98066.52;435198;1253;98017;-43
2023/07/29 05:57:30;;;;;;;6.10;3.60;;;;;;;22.53;75.05;98076.45;435331;1254;99244;-42
2023/07/29 06:07:35;;;;;;;;;;;;;;;23.32;74.61;98071.89;435229;1256;108580;-41
2023/07/29 06:27:47;;;;;;;3.40;2.60;;;;;;;25.31;72.45;98087.70;435415;1254;111705;-42
2023/07/29 06:37:53;;;;;;;;;;;;;;;25.84;70.65;98094.18;435176;1257;108386;-42
2023/07/29 06:48:00;;;;;;;2.90;2.60;;;;;;;26.50;69.27;98098.98;435219;1256;97986;-43
2023/07/29 06:58:06;;;;;;;3.80;2.20;;;;;;;26.96;67.01;98097.84;435193;1256;108535;-42
2023/07/29 07:08:12;;;;;;;2.40;2.20;;;;;;;27.27;65.46;98091.64;435064;1256;99250;-41
2023/07/29 07:28:25;;;;;;;1.60;1.50;;;;;;;27.71;62.52;98094.66;435181;1252;108279;-42
2023/07/29 07:38:31;;;;;;;1.80;1.60;;;;;;;27.96;61.58;98088.60;435181;1256;99145;-43
2023/07/29 07:48:38;;;;;;;1.70;1.00;;;;;;;28.32;60.06;98082.95;435171;1256;108716;-42
2023/07/29 07:58:42;;;;;;;1.80;1.70;;;;;;;28.62;59.61;98087.02;435225;1254;99346;-46
2023/07/29 08:08:49;;;;;;;3.30;1.40;;;;;;;28.70;58.13;98084.99;435219;1256;112193;-42
2023/07/29 08:18:56;;;;;;;3.90;1.90;;;;;;;28.82;57.52;98074.46;435186;1256;109413;-43
2023/07/29 08:29:03;;;;;;;2.80;1.40;;;;;;;29.04;56.74;98066.22;435169;1253;99221;-43
2023/07/29 08:39:10;;;;;;;2.20;1.90;;;;;;;29.17;55.91;98064.46;435131;1256;108458;-43
2023/07/29 08:59:26;;;;;;;3.10;1.80;;;;;;;29.50;54.79;98055.02;435244;1257;111501;-43
2023/07/29 09:09:33;;;;;;;2.60;2.20;;;;;;;29.24;54.16;98048.16;435145;1266;108500;-44
2023/07/29 09:19:39;;;;;;;3.70;2.40;;;;;;;29.14;53.35;98042.48;435024;1254;99056;-44
2023/07/29 09:39:53;;;;;;;8.10;2.50;;;;;;;29.30;52.04;98035.16;435153;1252;99221;-42
2023/07/29 09:50:00;;;;;;;2.50;2.10;;;;;;;28.81;52.33;98024.78;435267;1253;110711;-42
2023/07/29 10:00:11;;;;;;;3.60;2.20;;;;;;;28.88;52.49;98017.65;434926;1254;109919;-43
2023/07/29 10:10:19;;;;;;;3.30;2.20;;;;;;;28.92;52.03;98007.13;435278;1256;98149;-42
2023/07/29 10:20:25;;;;;;;3.70;2.20;;;;;;;29.47;51.52;97999.70;435026;1256;108058;-43
2023/07/29 10:30:31;;;;;;;5.80;2.40;;;;;;;29.65;50.78;97995.83;435155;1257;99214;-43
2023/07/29 11:01:35;;;;;;;5.50;2.10;;;;;;;30.02;49.65;97988.63;435229;1260;99220;-44
2023/07/29 11:11:41;;;;;;;2.90;1.90;;;;;;;30.28;48.84;97985.23;435046;1257;109555;-42
2023/07/29 11:21:48;;;;;;;1.80;1.70;;;;;;;30.22;47.77;97982.37;435095;1257;101563;-42
2023/07/29 11:31:54;;;;;;;2.70;1.80;;;;;;;29.69;46.67;97968.15;435112;1254;111905;-43
2023/07/29 11:52:10;;;;;;;4.70;1.30;;;;;;;29.12;47.27;97945.79;435147;1256;99367;-42
2023/07/29 12:02:17;;;;;;;3.40;1.70;;;;;;;28.93;47.34;97938.27;435215;1256;108183;-43
2023/07/29 12:12:24;;;;;;;2.10;1.70;;;;;;;28.91;47.70;97926.13;434570;1257;496452;-41
2023/07/29 12:32:44;;;;;;;10.40;9.40;;;;;;;29.31;47.71;97921.06;435187;1256;108202;-42
2023/07/29 12:42:52;;;;;;;2.50;1.70;;;;;;;29.43;47.12;97904.58;435226;1257;99250;-43
2023/07/29 12:52:58;;;;;;;3.00;1.70;;;;;;;29.37;46.71;97895.84;435050;1256;107740;-42
2023/07/29 13:13:09;;;;;;;;;;;;;;;29.19;46.16;97884.25;435179;1256;111116;-42
2023/07/29 13:23:17;;;;;;;3.00;1.30;;;;;;;28.47;46.45;97872.06;435072;1253;108530;-42
2023/07/29 13:33:24;;;;;;;6.60;1.80;;;;;;;28.67;46.79;97864.67;435045;1257;99587;-39
2023/07/29 13:43:31;;;;;;;1.60;1.50;;;;;;;29.12;47.13;97858.35;435119;1256;107537;-42
2023/07/29 14:03:43;;;;;;;2.50;1.60;;;;;;;28.85;46.58;97851.68;435288;1257;112387;-41
2023/07/29 14:13:50;;;;;;;2.60;2.00;;;;;;;28.64;47.07;97843.95;435092;1256;108873;-42
2023/07/29 14:23:57;;;;;;;2.00;1.80;;;;;;;28.57;47.41;97839.80;435146;1257;99243;-43
2023/07/29 14:44:09;;;;;;;3.10;2.10;;;;;;;28.40;48.11;97816.96;435241;1258;97994;-42
2023/07/29 14:54:15;;;;;;;3.60;1.80;;;;;;;28.28;47.58;97813.58;435152;1257;111589;-42
2023/07/29 15:04:21;;;;;;;5.40;2.40;;;;;;;27.54;48.21;97808.98;435125;1265;108611;-41
2023/07/29 15:24:34;;;;;;;2.50;2.30;;;;;;;27.39;50.06;97818.71;435123;1257;109414;-41
2023/07/29 15:44:46;;;;;;;;;;;;;;;27.42;50.64;97814.90;435172;1257;111314;-42
2023/07/29 15:54:54;;;;;;;4.20;2.50;;;;;;;27.24;51.24;97812.95;435209;1254;108090;-42
2023/07/29 16:05:01;;;;;;;5.30;2.90;;;;;;;27.17;51.65;97805.89;435277;1258;99223;-41
2023/07/29 16:15:10;;;;;;;3.20;2.90;;;;;;;27.04;51.98;97799.13;435019;1257;109455;-41
2023/07/29 16:25:17;;;;;;;2.80;2.60;;;;;;;26.65;52.13;97784.61;434812;1254;99220;-42
2023/07/29 16:35:22;;;;;;;3.20;2.90;;;;;;;26.40;52.86;97776.55;435228;1257;111638;-42
2023/07/29 16:45:28;;;;;;;4.30;3.70;;;;;;;26.08;53.27;97772.31;435097;1254;108376;-42
2023/07/29 16:55:34;;;;;;;8.00;3.60;;;;;;;25.74;53.86;97765.84;435190;1257;99243;-41
2023/07/29 17:05:41;;;;;;;5.60;5.10;;;;;;;25.46;54.56;97753.99;435167;1257;108313;-41
2023/07/29 17:15:48;;;;;;;5.40;4.00;;;;;;;25.23;54.78;97756.34;435205;1257;99250;-43
2023/07/29 17:25:55;;;;;;;6.20;3.60;;;;;;;24.94;55.25;97749.90;435289;1265;112899;-43
2023/07/29 17:36:01;;;;;;;;;;;;;;;24.63;56.29;97742.69;435174;1256;108619;-42
2023/07/29 17:46:08;;;;;;;7.20;4.00;;;;;;;24.40;56.77;97757.00;435305;1256;99266;-42
2023/07/29 17:56:16;;;;;;;3.10;1.70;;;;;;;24.16;57.56;97782.13;435255;1256;108735;-43
2023/07/29 18:06:23;;;;;;;3.20;1.30;;;;;;;23.35;58.21;97805.88;435231;1258;99246;-42
2023/07/29 18:16:30;;;;;;;1.40;1.30;;;;;;;22.32;59.51;97794.02;435274;1253;111947;-43
2023/07/29 18:26:36;;;;;;;3.60;1.40;;;;;;;21.70;60.95;97795.38;435129;1257;108234;-43
2023/07/29 18:36:44;;;;;;;4.20;1.20;;;;;;;21.23;62.10;97804.69;435160;1257;99202;-43
2023/07/29 18:46:52;;;;;;;4.00;2.00;;;;;;;20.74;63.39;97830.39;435282;1270;108484;-42
2023/07/29 18:56:58;;;;;;;3.30;2.80;;;;;;;20.46;64.51;97851.83;435028;1257;99237;-43
2023/07/29 19:07:06;;;;;;;4.10;2.50;;;;;;;20.29;65.95;97862.41;435188;1254;112006;-43
2023/07/29 19:17:13;;;;;;;5.10;3.10;;;;;;;20.40;66.82;97869.79;435194;1253;107704;-42
2023/07/29 19:37:25;;;;;;;4.70;2.10;;;;;;;20.07;68.20;97865.36;435067;1257;108989;-43
2023/07/29 19:47:33;;;;;;;7.40;3.50;;;;;;;19.92;68.99;97873.13;435152;1267;99351;-42
2023/07/29 19:57:40;;;;;;;4.60;3.40;;;;;;;19.77;69.68;97857.37;435194;1253;111682;-41
2023/07/29 20:07:48;;;;;;;3.80;2.20;;;;;;;19.59;70.18;97854.17;435088;1256;109314;-43
2023/07/29 20:38:05;;;;;;;10.10;3.60;;;;;;;19.42;71.53;97857.85;435140;1254;99352;-42
2023/07/29 20:58:16;;;;;;;5.30;2.50;;;;;;;19.27;71.98;97876.02;435080;1269;108155;-42
2023/07/29 21:08:23;;;;;;;5.60;2.50;;;;;;;19.19;72.39;97877.10;435272;1253;99238;-42
2023/07/29 21:18:27;;;;;;;9.30;2.40;;;;;;;19.29;72.65;97879.81;435123;1256;108265;-42
2023/07/29 21:28:34;;;;;;;2.80;2.20;;;;;;;19.35;72.75;97875.00;435123;1258;97989;-42
2023/07/29 21:48:46;;;;;;;3.90;2.20;;;;;;;19.30;72.98;97872.01;435128;1256;107353;-42
2023/07/29 21:58:52;;;;;;;4.10;2.00;;;;;;;19.24;73.00;97881.33;435271;1253;99909;-42
2023/07/29 22:08:59;;;;;;;7.80;2.00;;;;;;;19.22;73.12;97885.79;435138;1257;109720;-41
2023/07/29 22:19:06;;;;;;;1.90;1.70;;;;;;;19.02;73.10;97879.20;435140;1252;98029;-41
2023/07/29 22:39:20;;;;;;;2.90;1.70;;;;;;;18.87;73.65;97878.04;435190;1256;107642;-42
2023/07/29 22:49:29;;;;;;;4.00;1.60;;;;;;;18.93;73.99;97878.83;435186;1254;99314;-42
2023/07/29 22:59:36;;;;;;;2.50;1.70;;;;;;;19.01;74.06;97883.57;435168;1253;107950;-42
2023/07/29 23:09:43;;;;;;;4.10;1.70;;;;;;;18.94;73.84;97875.23;435020;1254;99218;-42
2023/07/29 23:19:50;;;;;;;5.30;2.10;;;;;;;18.96;73.99;97865.03;435117;1257;112166;-42
2023/07/29 23:29:57;;;;;;;4.60;2.00;;;;;;;18.95;74.16;97873.31;435167;1256;109401;-42
2023/07/29 23:40:03;;;;;;;3.00;2.10;;;;;;;18.97;74.29;97897.38;435078;1253;98849;-42
2023/07/29 23:50:13;;;;;;;4.80;1.90;;;;;;;18.90;74.58;97913.15;435209;1257;108557;-42
